Time;durP1;ratioP1;P1;durP2;ratioP2;P2;SDS_P1;SDS_P2;PMS_P1;PMS_P2;Temp;Humidity;BMP_temperature;BMP_pressure;BME280_temperature;BME280_humidity;BME280_pressure;Samples;Min_cycle;Max_cycle;Signal;HPM_P1;HPM_P2
2022/06/24 00:00:33;;;;;;;3.75;3.40;;;;;;;19.71;71.78;100496.56;4993188;28;102352;-47
2022/06/24 00:03:00;;;;;;;3.85;3.55;;;;;;;19.72;71.51;100498.19;4994637;28;102352;-48
2022/06/24 00:05:29;;;;;;;4.28;3.88;;;;;;;19.71;71.49;100499.34;4993617;28;102323;-47
2022/06/24 00:07:57;;;;;;;3.92;3.08;;;;;;;19.70;71.57;100494.97;4993952;28;103712;-48
2022/06/24 00:10:29;;;;;;;3.55;3.30;;;;;;;19.72;71.43;100491.84;4991543;28;102357;-48
2022/06/24 00:12:56;;;;;;;3.30;3.10;;;;;;;19.71;71.62;100491.06;4994691;28;102902;-48
2022/06/24 00:15:29;;;;;;;3.90;3.17;;;;;;;19.71;71.40;100496.56;4992847;28;102317;-47
2022/06/24 00:17:56;;;;;;;3.53;3.22;;;;;;;19.71;71.35;100484.72;4993919;28;103953;-48
2022/06/24 00:20:23;;;;;;;3.75;3.45;;;;;;;19.71;71.23;100493.81;4994911;28;102567;-47
2022/06/24 00:22:52;;;;;;;3.60;3.13;;;;;;;19.69;71.60;100493.34;4996250;28;102135;-47
2022/06/24 00:25:21;;;;;;;3.13;2.93;;;;;;;19.69;71.87;100493.34;4992516;28;102280;-48
2022/06/24 00:28:03;;;;;;;3.42;3.13;;;;;;;19.70;71.66;100492.22;4993588;28;103874;-48
2022/06/24 00:30:37;;;;;;;3.55;3.25;;;;;;;19.69;71.55;100493.34;4995652;28;102722;-48
2022/06/24 00:33:11;;;;;;;4.55;3.15;;;;;;;19.70;71.78;100485.88;4996063;28;101992;-48
2022/06/24 00:35:40;;;;;;;3.33;3.13;;;;;;;19.69;71.85;100490.59;4997051;28;102282;-48
2022/06/24 00:38:23;;;;;;;3.58;3.15;;;;;;;19.69;72.01;100485.06;4996843;28;104499;-48
2022/06/24 00:40:52;;;;;;;3.75;3.22;;;;;;;19.69;71.68;100493.34;4994318;28;102437;-48
2022/06/24 00:43:24;;;;;;;3.63;3.33;;;;;;;19.70;71.42;100494.16;4993633;28;102347;-48
2022/06/24 00:45:58;;;;;;;3.42;3.13;;;;;;;19.69;71.62;100493.34;4987583;28;102213;-48
2022/06/24 00:48:28;;;;;;;3.55;3.25;;;;;;;19.69;71.74;100487.84;4997533;28;103928;-48
2022/06/24 00:50:55;;;;;;;3.05;2.85;;;;;;;19.70;71.62;100494.16;4995002;28;103199;-48
2022/06/24 00:53:22;;;;;;;3.83;3.30;;;;;;;19.69;71.95;100493.34;4993848;28;102791;-47
2022/06/24 00:55:48;;;;;;;4.13;3.13;;;;;;;19.70;72.08;100496.91;4995237;28;104821;-48
2022/06/24 00:58:17;;;;;;;3.60;3.30;;;;;;;19.68;72.33;100491.72;4997368;28;103905;-48
2022/06/24 01:00:46;;;;;;;5.13;3.53;;;;;;;19.69;71.70;100496.13;4995662;28;101981;-48
2022/06/24 01:03:15;;;;;;;4.97;3.20;;;;;;;19.69;72.16;100493.34;4996024;28;102115;-48
2022/06/24 01:05:43;;;;;;;3.55;3.22;;;;;;;19.70;71.84;100502.44;4993694;28;102874;-48
2022/06/24 01:08:11;;;;;;;5.10;3.17;;;;;;;19.69;72.05;100493.34;4996897;28;103913;-48
2022/06/24 01:10:39;;;;;;;3.33;3.05;;;;;;;19.69;71.86;100498.88;4995326;28;102368;-47
2022/06/24 01:13:08;;;;;;;3.60;3.30;;;;;;;19.70;71.72;100486.69;4997359;28;102367;-48
2022/06/24 01:15:35;;;;;;;23.13;4.35;;;;;;;19.70;72.02;100491.41;4996507;28;102527;-48
2022/06/24 01:18:02;;;;;;;2.70;2.50;;;;;;;19.69;71.87;100493.34;4996915;28;104065;-48
2022/06/24 01:20:30;;;;;;;3.40;3.20;;;;;;;19.69;71.98;100496.13;4995490;28;102349;-48
2022/06/24 01:22:58;;;;;;;3.10;2.90;;;;;;;19.70;71.99;100497.72;4996891;28;102790;-48
2022/06/24 01:25:25;;;;;;;3.37;3.07;;;;;;;19.68;72.14;100492.53;4997459;28;102571;-48
2022/06/24 01:27:51;;;;;;;3.42;3.13;;;;;;;19.70;72.31;100494.16;4996513;28;103966;-48
2022/06/24 01:30:18;;;;;;;3.50;3.20;;;;;;;19.70;71.62;100494.16;4995524;28;102390;-48
2022/06/24 01:32:44;;;;;;;6.15;3.25;;;;;;;19.69;71.62;100496.13;4995259;28;102097;-48
2022/06/24 01:35:11;;;;;;;3.30;3.00;;;;;;;19.70;71.63;100496.91;4996630;28;102329;-48
2022/06/24 01:37:38;;;;;;;3.75;3.45;;;;;;;19.70;72.06;100500.50;4995912;28;104081;-48
2022/06/24 01:40:08;;;;;;;3.50;3.20;;;;;;;19.68;71.98;100492.53;4995181;28;104747;-47
2022/06/24 01:42:37;;;;;;;5.43;3.55;;;;;;;19.69;72.06;100490.59;4996304;28;103796;-48
2022/06/24 01:45:04;;;;;;;3.80;3.38;;;;;;;19.70;72.06;100486.69;4995199;28;102324;-46
2022/06/24 01:47:31;;;;;;;3.28;3.00;;;;;;;19.70;71.98;100489.44;4994659;28;103778;-52
2022/06/24 01:49:57;;;;;;;3.42;3.15;;;;;;;19.69;71.33;100493.34;4993912;28;102356;-47
2022/06/24 01:52:24;;;;;;;3.40;3.10;;;;;;;19.69;71.81;100487.84;4995897;28;102503;-48
2022/06/24 01:54:50;;;;;;;3.28;2.88;;;;;;;19.69;72.05;100493.34;4996557;28;102185;-47
2022/06/24 01:57:18;;;;;;;5.38;3.00;;;;;;;19.68;71.99;100484.25;4995297;28;103909;-48
2022/06/24 01:59:45;;;;;;;3.40;3.10;;;;;;;19.69;71.63;100490.59;4994707;28;103221;-48
2022/06/24 02:02:12;;;;;;;3.67;3.38;;;;;;;19.70;nan;100489.44;4995005;28;102118;-48
2022/06/24 02:04:38;;;;;;;6.90;3.20;;;;;;;19.69;72.29;100487.84;4995169;28;102590;-48
2022/06/24 02:07:05;;;;;;;3.95;2.97;;;;;;;19.70;72.11;100494.16;4992189;28;103924;-48
2022/06/24 02:13:26;;;;;;;3.50;3.20;;;;;;;19.70;71.93;100500.50;4995091;28;102647;-48
2022/06/24 02:15:07;;;;;;;4.10;2.92;;;;;;;19.69;72.42;100490.59;4995223;28;104091;-48
2022/06/24 02:17:33;;;;;;;3.22;2.92;;;;;;;19.69;72.42;100498.88;4994879;28;103865;-48
2022/06/24 02:20:00;;;;;;;3.50;3.10;;;;;;;19.67;72.31;100493.69;4994470;28;102094;-48
2022/06/24 02:22:26;;;;;;;4.65;3.08;;;;;;;19.67;71.96;100496.44;4994616;28;102463;-48
2022/06/24 02:24:53;;;;;;;4.07;3.15;;;;;;;19.68;71.94;100502.75;4996632;28;102816;-48
2022/06/24 02:27:21;;;;;;;3.40;3.10;;;;;;;19.67;72.30;100495.63;4994477;28;103905;-47
2022/06/24 02:29:48;;;;;;;3.20;2.90;;;;;;;19.68;71.78;100502.75;4994749;28;102620;-48
2022/06/24 02:32:14;;;;;;;3.13;2.78;;;;;;;19.68;71.86;100503.56;4994290;28;102429;-48
2022/06/24 02:34:41;;;;;;;3.10;2.90;;;;;;;19.68;71.75;100503.56;4996452;28;102468;-48
2022/06/24 02:37:07;;;;;;;3.30;3.00;;;;;;;19.68;72.14;100509.09;4993822;28;106141;-47
2022/06/24 02:39:34;;;;;;;3.33;3.03;;;;;;;19.67;71.74;100506.69;4995267;28;102301;-47
2022/06/24 02:42:00;;;;;;;3.67;3.38;;;;;;;19.68;71.94;100508.28;4993028;28;103031;-48
2022/06/24 02:44:28;;;;;;;3.53;3.22;;;;;;;19.68;72.22;100503.56;4993757;28;102692;-48
2022/06/24 02:46:55;;;;;;;3.50;3.20;;;;;;;19.67;71.80;100503.91;4993037;28;103857;-48
2022/06/24 02:49:21;;;;;;;3.28;2.97;;;;;;;19.68;71.98;100508.28;4988446;28;102435;-48
2022/06/24 02:51:48;;;;;;;4.07;3.00;;;;;;;19.67;72.35;100513.00;4991858;28;102480;-48
2022/06/24 02:54:14;;;;;;;3.53;2.92;;;;;;;19.66;71.54;100516.13;4996434;28;104825;-48
2022/06/24 02:56:41;;;;;;;3.20;3.00;;;;;;;19.67;72.04;100510.25;4992508;28;103776;-47
2022/06/24 02:59:07;;;;;;;4.18;3.35;;;;;;;19.68;72.10;100513.81;4984951;28;105098;-47
2022/06/24 03:01:36;;;;;;;3.22;2.92;;;;;;;19.67;72.13;100513.00;4994317;28;102104;-48
2022/06/24 03:04:03;;;;;;;3.42;3.13;;;;;;;19.67;72.15;100507.47;4995459;28;101927;-48
2022/06/24 03:06:30;;;;;;;4.70;3.00;;;;;;;19.67;72.24;100512.19;4992850;28;103865;-48
2022/06/24 03:08:57;;;;;;;2.72;2.53;;;;;;;19.67;72.53;100517.72;4995028;28;102159;-48
2022/06/24 03:11:24;;;;;;;3.35;3.10;;;;;;;19.67;72.11;100509.44;4993916;28;103525;-48
2022/06/24 03:13:51;;;;;;;3.42;3.13;;;;;;;19.67;71.91;100512.19;4996035;28;102794;-48
2022/06/24 03:16:17;;;;;;;3.33;3.13;;;;;;;19.66;72.28;100510.59;4992937;28;104077;-48
2022/06/24 03:18:46;;;;;;;3.45;3.15;;;;;;;19.66;72.10;100508.63;4994491;28;102108;-48
2022/06/24 03:21:13;;;;;;;4.00;3.20;;;;;;;19.67;71.87;100509.44;4993967;28;102348;-46
2022/06/24 03:23:40;;;;;;;3.30;3.00;;;;;;;19.68;71.78;100513.81;4995854;28;102033;-48
2022/06/24 03:26:07;;;;;;;3.03;2.83;;;;;;;19.67;71.88;100512.19;4990283;28;103835;-48
2022/06/24 03:28:33;;;;;;;3.20;3.00;;;;;;;19.66;71.85;100507.84;4993688;28;103100;-48
2022/06/24 03:31:00;;;;;;;4.68;3.28;;;;;;;19.66;72.00;100502.31;4992619;28;103025;-48
2022/06/24 03:33:27;;;;;;;3.58;3.28;;;;;;;19.66;72.24;100494.84;4995849;28;102260;-49
2022/06/24 03:35:55;;;;;;;3.40;3.10;;;;;;;19.65;71.98;100492.41;4991085;28;104010;-47
2022/06/24 03:38:21;;;;;;;3.57;3.27;;;;;;;19.66;72.42;100499.56;4995077;28;102299;-48
2022/06/24 03:40:48;;;;;;;3.42;3.13;;;;;;;19.66;72.45;100505.06;4991495;28;102635;-48
2022/06/24 03:43:15;;;;;;;3.03;2.72;;;;;;;19.65;72.16;100504.28;4995343;28;105213;-47
2022/06/24 03:45:41;;;;;;;3.28;2.95;;;;;;;19.65;72.11;100509.78;4990888;28;104021;-47
2022/06/24 03:48:08;;;;;;;4.45;2.95;;;;;;;19.64;72.02;100513.69;4990283;28;102234;-48
2022/06/24 03:50:34;;;;;;;3.78;3.10;;;;;;;19.66;72.08;100513.34;4991714;28;102266;-47
2022/06/24 03:53:02;;;;;;;3.35;3.05;;;;;;;19.65;72.44;100508.97;4995546;28;102309;-48
2022/06/24 03:55:29;;;;;;;3.58;3.13;;;;;;;19.65;72.08;100514.47;4989344;28;104058;-48
2022/06/24 03:57:55;;;;;;;3.22;2.92;;;;;;;19.64;71.38;100513.69;4994473;28;102379;-48
2022/06/24 04:00:22;;;;;;;3.83;3.42;;;;;;;19.65;71.71;100514.47;4991828;28;102519;-48
2022/06/24 04:02:49;;;;;;;3.20;2.90;;;;;;;19.64;71.38;100521.16;4995245;28;102280;-48
2022/06/24 04:05:16;;;;;;;3.35;3.05;;;;;;;19.64;71.97;100523.91;4992679;28;106401;-47
2022/06/24 04:07:44;;;;;;;3.13;2.88;;;;;;;19.65;71.76;100517.25;4992839;28;104510;-48
2022/06/24 04:10:12;;;;;;;3.17;2.88;;;;;;;19.65;71.40;100508.97;4992685;28;101897;-48
2022/06/24 04:12:38;;;;;;;3.47;2.97;;;;;;;19.65;71.61;100508.97;4994976;28;102181;-48
2022/06/24 04:15:17;;;;;;;3.53;3.22;;;;;;;19.65;71.97;100520.00;4992219;28;103925;-47
2022/06/24 04:17:45;;;;;;;4.25;3.08;;;;;;;19.66;71.75;100518.88;4993830;28;101883;-48
2022/06/24 04:20:13;;;;;;;3.22;3.03;;;;;;;19.64;71.52;100524.72;4992121;28;102373;-48
2022/06/24 04:22:41;;;;;;;3.97;3.40;;;;;;;19.66;71.84;100524.41;4994469;28;102675;-49
2022/06/24 04:25:09;;;;;;;3.47;3.17;;;;;;;19.67;71.49;100534.28;4992762;28;104478;-48
2022/06/24 04:27:40;;;;;;;3.38;3.17;;;;;;;19.65;71.59;100526.34;4980012;28;102368;-47
2022/06/24 04:30:09;;;;;;;3.35;3.05;;;;;;;19.65;71.51;100522.75;4990750;28;106656;-48
2022/06/24 04:32:36;;;;;;;3.35;3.15;;;;;;;19.65;71.24;100520.00;4994270;28;102413;-48
2022/06/24 04:35:04;;;;;;;3.40;3.17;;;;;;;19.64;71.47;100521.16;4993300;28;104157;-49
2022/06/24 04:37:30;;;;;;;3.33;3.03;;;;;;;19.64;72.03;100527.47;4993886;28;102324;-48
2022/06/24 04:39:58;;;;;;;3.50;3.20;;;;;;;19.64;71.55;100524.72;4991783;28;102157;-47
2022/06/24 04:42:24;;;;;;;3.78;3.17;;;;;;;19.64;71.73;100521.16;4993526;28;102171;-48
2022/06/24 04:44:53;;;;;;;3.33;3.03;;;;;;;19.64;71.61;100529.44;4992707;28;103917;-47
2022/06/24 04:47:20;;;;;;;3.88;3.50;;;;;;;19.65;71.42;100528.28;4993406;28;102254;-48
2022/06/24 04:49:46;;;;;;;3.25;3.05;;;;;;;19.63;71.90;100528.63;4992700;28;102295;-47
2022/06/24 04:52:13;;;;;;;3.30;3.00;;;;;;;19.62;70.77;100526.19;4992461;28;102410;-48
2022/06/24 04:54:40;;;;;;;3.88;3.00;;;;;;;19.63;71.27;100528.63;4992399;28;104186;-48
2022/06/24 04:57:07;;;;;;;5.90;2.90;;;;;;;19.64;71.58;100529.44;4992600;28;102175;-48
2022/06/24 04:59:33;;;;;;;3.47;3.17;;;;;;;19.62;71.19;100531.72;4993713;28;101989;-48
2022/06/24 05:02:03;;;;;;;3.70;3.25;;;;;;;19.64;71.57;100540.47;4992682;28;102361;-48
2022/06/24 05:04:30;;;;;;;3.50;3.20;;;;;;;19.64;71.48;100540.47;4991601;28;104208;-47
2022/06/24 05:06:57;;;;;;;3.60;3.30;;;;;;;19.65;71.29;100548.44;4993009;28;102423;-48
2022/06/24 05:09:23;;;;;;;3.47;3.17;;;;;;;19.65;71.24;100553.13;4995499;28;102087;-47
2022/06/24 05:11:50;;;;;;;3.67;3.00;;;;;;;19.64;71.66;100551.53;4996608;28;102186;-47
2022/06/24 05:14:17;;;;;;;3.28;2.97;;;;;;;19.64;71.73;100541.28;4995358;28;104026;-46
2022/06/24 05:16:44;;;;;;;3.17;2.90;;;;;;;19.65;71.46;100544.84;4983235;28;102196;-48
2022/06/24 05:19:12;;;;;;;3.63;3.00;;;;;;;19.66;71.51;100549.25;4994801;28;102344;-48
2022/06/24 05:21:38;;;;;;;3.45;3.15;;;;;;;19.66;71.27;100555.56;4995569;28;102296;-48
2022/06/24 05:24:06;;;;;;;3.90;3.60;;;;;;;19.66;71.36;100552.00;4997248;28;103750;-47
2022/06/24 05:26:32;;;;;;;3.55;3.25;;;;;;;19.66;71.69;100546.47;4987199;28;102127;-47
2022/06/24 05:28:59;;;;;;;3.22;3.03;;;;;;;19.67;71.59;100550.84;4991974;28;102664;-47
2022/06/24 05:31:25;;;;;;;3.38;3.15;;;;;;;19.66;71.52;100549.25;4990862;28;104265;-48
2022/06/24 05:33:52;;;;;;;3.50;3.20;;;;;;;19.66;71.79;100549.25;4992051;28;103848;-47
2022/06/24 05:36:20;;;;;;;4.55;2.70;;;;;;;19.68;71.46;100552.47;4989665;28;102650;-47
2022/06/24 05:38:46;;;;;;;4.00;3.45;;;;;;;19.66;71.51;100554.78;4992400;28;102157;-48
2022/06/24 05:41:13;;;;;;;3.05;2.80;;;;;;;19.66;71.68;100560.28;4995313;28;102223;-48
2022/06/24 05:43:39;;;;;;;3.28;3.08;;;;;;;19.66;71.26;100563.06;4995513;28;104050;-48
2022/06/24 05:46:06;;;;;;;3.58;3.17;;;;;;;19.67;71.67;100570.19;4996494;28;102169;-47
2022/06/24 05:48:33;;;;;;;3.28;3.00;;;;;;;19.66;71.49;100565.81;4993156;28;102355;-48
2022/06/24 05:51:06;;;;;;;3.70;3.40;;;;;;;19.67;71.26;100564.66;4996754;28;102272;-48
2022/06/24 05:56:19;;;;;;;3.47;3.17;;;;;;;19.65;71.68;100556.72;4996459;28;102379;-48
2022/06/24 05:58:46;;;;;;;3.50;3.20;;;;;;;19.65;71.40;100555.88;4995891;28;102399;-48
2022/06/24 06:01:13;;;;;;;3.55;3.25;;;;;;;19.66;71.17;100560.28;4997949;28;102052;-48
2022/06/24 06:03:40;;;;;;;4.68;3.38;;;;;;;19.67;71.36;100567.41;4996194;28;103938;-48
2022/06/24 06:06:09;;;;;;;4.23;3.20;;;;;;;19.67;71.66;100559.13;4996598;28;102242;-48
2022/06/24 06:08:37;;;;;;;3.83;3.53;;;;;;;19.67;71.25;100565.47;4996228;28;101900;-48
2022/06/24 06:11:11;;;;;;;3.20;3.00;;;;;;;19.66;71.47;100565.81;4997890;28;102135;-48
2022/06/24 06:13:37;;;;;;;5.85;3.70;;;;;;;19.67;71.28;100570.19;4996073;28;103912;-48
2022/06/24 06:16:06;;;;;;;3.45;3.15;;;;;;;19.66;71.26;100571.31;4997192;28;102408;-47
2022/06/24 06:18:32;;;;;;;3.85;3.30;;;;;;;19.67;71.51;100570.19;4995807;28;102042;-48
2022/06/24 06:21:00;;;;;;;3.50;3.20;;;;;;;19.65;71.39;100570.53;4997305;28;102480;-47
2022/06/24 06:23:28;;;;;;;4.05;3.10;;;;;;;19.65;71.42;100566.94;4995935;28;108020;-48
2022/06/24 06:25:56;;;;;;;7.03;3.30;;;;;;;19.66;71.38;100576.84;4996773;28;102477;-48
2022/06/24 06:28:23;;;;;;;3.67;3.40;;;;;;;19.65;71.40;100569.69;4995220;28;102425;-48
2022/06/24 06:30:49;;;;;;;3.35;3.05;;;;;;;19.66;71.43;100568.56;4997848;28;102469;-48
2022/06/24 06:33:16;;;;;;;3.50;3.20;;;;;;;19.65;71.00;100566.94;4995150;28;103870;-48
2022/06/24 06:35:42;;;;;;;3.47;3.25;;;;;;;19.65;71.62;100570.53;4996678;28;102282;-48
2022/06/24 06:38:09;;;;;;;3.67;3.38;;;;;;;19.66;71.39;100572.13;4995859;28;103633;-48
2022/06/24 06:40:37;;;;;;;4.13;3.45;;;;;;;19.66;71.50;100566.63;4997577;28;102509;-48
2022/06/24 06:43:06;;;;;;;3.70;3.40;;;;;;;19.67;71.36;100567.41;4987559;28;104010;-47
2022/06/24 06:45:33;;;;;;;5.10;3.53;;;;;;;19.67;71.37;100564.66;4995427;28;102210;-48
2022/06/24 06:48:00;;;;;;;3.58;3.28;;;;;;;19.68;71.25;100569.03;4994352;28;102754;-48
2022/06/24 06:50:27;;;;;;;3.92;3.33;;;;;;;19.67;71.52;100567.41;4994533;28;102412;-48
2022/06/24 06:52:54;;;;;;;3.67;3.38;;;;;;;19.69;71.70;100576.19;4994831;28;103905;-48
2022/06/24 06:55:21;;;;;;;3.60;3.30;;;;;;;19.70;71.72;100572.28;4995883;28;102338;-48
2022/06/24 06:57:48;;;;;;;3.28;3.00;;;;;;;19.72;71.26;100569.16;4994364;28;102009;-48
2022/06/24 07:00:17;;;;;;;3.95;3.65;;;;;;;19.72;71.11;100564.44;4996048;28;102079;-48
2022/06/24 07:02:44;;;;;;;4.30;3.95;;;;;;;19.75;70.89;100566.53;4989959;28;104356;-48
2022/06/24 07:05:10;;;;;;;3.85;3.45;;;;;;;19.76;70.19;100570.91;4988785;28;101976;-47
2022/06/24 07:07:37;;;;;;;3.45;3.17;;;;;;;19.75;71.27;100563.78;4992760;28;102482;-47
2022/06/24 07:10:07;;;;;;;4.05;3.65;;;;;;;19.75;71.10;100569.28;4993500;28;102635;-47
2022/06/24 07:12:35;;;;;;;3.33;3.00;;;;;;;19.78;70.99;100574.16;4993304;28;103904;-46
2022/06/24 07:15:01;;;;;;;4.00;3.60;;;;;;;19.77;70.82;100578.06;4995283;28;102138;-47
2022/06/24 07:17:30;;;;;;;4.10;3.65;;;;;;;19.79;69.84;100572.19;4993705;28;102284;-48
2022/06/24 07:19:56;;;;;;;3.73;3.43;;;;;;;19.79;70.82;100564.72;4994663;28;102446;-47
2022/06/24 07:22:24;;;;;;;3.92;3.63;;;;;;;19.81;71.04;100567.97;4992024;28;103924;-47
2022/06/24 07:24:50;;;;;;;3.65;3.25;;;;;;;19.78;71.52;100563.09;4995363;28;102060;-48
2022/06/24 07:27:17;;;;;;;3.30;3.00;;;;;;;19.80;71.33;100569.13;4992448;28;102046;-47
2022/06/24 07:29:44;;;;;;;3.70;3.40;;;;;;;19.80;71.07;100569.13;4989208;28;105033;-49
2022/06/24 07:32:13;;;;;;;3.60;3.30;;;;;;;19.80;71.62;100571.03;4984115;28;104136;-46
2022/06/24 07:34:42;;;;;;;3.55;3.20;;;;;;;19.79;71.08;100573.00;4991664;28;102470;-47
2022/06/24 07:37:08;;;;;;;4.22;3.50;;;;;;;19.78;71.37;100574.16;4994949;28;102468;-48
2022/06/24 07:39:35;;;;;;;4.50;3.38;;;;;;;19.78;71.51;100574.16;4995631;28;102324;-48
2022/06/24 07:42:01;;;;;;;3.95;3.65;;;;;;;19.77;71.53;100572.53;4992955;28;103931;-48
2022/06/24 07:44:28;;;;;;;3.67;3.38;;;;;;;19.76;71.55;100573.66;4992386;28;102216;-47
2022/06/24 07:46:54;;;;;;;3.92;3.63;;;;;;;19.76;71.77;100576.44;4993419;28;102025;-48
2022/06/24 07:49:21;;;;;;;3.97;3.30;;;;;;;19.77;71.71;100572.53;4995564;28;102409;-47
2022/06/24 07:51:49;;;;;;;3.58;3.28;;;;;;;19.77;71.40;100578.06;4984814;28;103939;-47
2022/06/24 07:54:16;;;;;;;5.63;3.58;;;;;;;19.79;71.70;100570.22;4995170;28;102236;-47
2022/06/24 07:56:58;;;;;;;3.83;3.53;;;;;;;19.79;71.70;100580.47;4986985;28;103703;-47
2022/06/24 07:59:25;;;;;;;3.90;3.60;;;;;;;19.79;71.21;100581.28;4982006;28;102458;-48
2022/06/24 08:01:52;;;;;;;4.15;3.60;;;;;;;19.81;71.71;100584.53;4991451;28;104914;-48
2022/06/24 08:04:19;;;;;;;4.20;3.90;;;;;;;19.84;71.27;100577.53;4993449;28;107267;-48
2022/06/24 08:06:49;;;;;;;4.20;3.83;;;;;;;19.84;71.12;100581.09;4992937;28;102108;-48
2022/06/24 08:09:18;;;;;;;4.18;3.65;;;;;;;19.83;71.08;100576.69;4995316;28;102242;-47
2022/06/24 08:11:45;;;;;;;4.15;3.55;;;;;;;19.83;71.00;100575.88;4993094;28;104070;-48
2022/06/24 08:14:13;;;;;;;3.70;3.40;;;;;;;19.83;71.12;100575.88;4995130;28;101908;-48
2022/06/24 08:16:40;;;;;;;4.55;4.18;;;;;;;19.84;70.92;100578.34;4994445;28;102105;-48
2022/06/24 08:19:06;;;;;;;4.90;4.40;;;;;;;19.85;70.67;100585.47;4995402;28;102320;-48
2022/06/24 08:21:33;;;;;;;4.45;4.05;;;;;;;19.84;71.32;100583.06;4992678;28;104054;-47
2022/06/24 08:24:00;;;;;;;4.38;3.97;;;;;;;19.80;71.46;100582.91;4994720;28;102178;-47
2022/06/24 08:26:28;;;;;;;5.07;3.85;;;;;;;19.82;71.24;100580.59;4992610;28;102071;-49
2022/06/24 08:28:55;;;;;;;4.30;3.73;;;;;;;19.83;71.46;100578.66;4992642;28;102238;-48
2022/06/24 08:31:21;;;;;;;4.00;3.70;;;;;;;19.83;71.26;100582.22;4992190;28;103858;-48
2022/06/24 08:33:48;;;;;;;4.43;3.97;;;;;;;19.84;70.73;100581.09;4993107;28;102183;-47
2022/06/24 08:36:15;;;;;;;3.70;3.40;;;;;;;19.84;70.92;100578.34;4994510;28;102317;-48
2022/06/24 08:38:42;;;;;;;4.40;4.00;;;;;;;19.85;71.01;100579.94;4995360;28;102251;-47
2022/06/24 08:41:10;;;;;;;3.83;3.45;;;;;;;19.81;71.26;100573.47;4992794;28;103837;-48
2022/06/24 08:43:39;;;;;;;3.87;3.57;;;;;;;19.82;70.75;100577.84;4996069;28;102292;-48
2022/06/24 08:46:06;;;;;;;3.35;3.10;;;;;;;19.84;71.39;100574.78;4997014;28;102520;-48
2022/06/24 08:48:32;;;;;;;3.85;3.55;;;;;;;19.86;71.36;100586.25;4996719;28;102360;-48
2022/06/24 08:51:00;;;;;;;4.03;3.72;;;;;;;19.85;71.56;100582.69;4996048;28;104205;-48
2022/06/24 08:53:31;;;;;;;3.70;3.40;;;;;;;19.85;71.77;100585.47;4996098;28;102347;-47
2022/06/24 08:55:58;;;;;;;3.70;3.40;;;;;;;19.84;71.62;100578.34;4997171;28;102301;-48
2022/06/24 08:58:24;;;;;;;4.22;3.58;;;;;;;19.84;71.37;100583.84;4996524;28;102120;-48
2022/06/24 09:00:52;;;;;;;4.13;3.80;;;;;;;19.86;71.12;100575.22;4994528;28;104113;-48
2022/06/24 09:03:19;;;;;;;4.15;3.85;;;;;;;19.85;71.47;100576.38;4991189;28;102291;-48
2022/06/24 09:05:46;;;;;;;4.50;3.25;;;;;;;19.86;71.17;100584.31;4992672;28;102400;-47
2022/06/24 09:08:14;;;;;;;4.00;3.70;;;;;;;19.83;71.66;100576.69;4997774;28;102532;-48
2022/06/24 09:10:43;;;;;;;3.70;3.47;;;;;;;19.83;71.18;100565.66;4994989;28;103932;-48
2022/06/24 09:13:20;;;;;;;7.88;3.45;;;;;;;19.87;71.09;100566.63;4994342;28;102401;-48
2022/06/24 09:15:52;;;;;;;3.75;3.45;;;;;;;19.86;71.21;100564.97;4995729;28;102288;-48
2022/06/24 09:18:23;;;;;;;4.20;3.80;;;;;;;19.83;71.27;100565.66;4998074;28;102222;-47
2022/06/24 09:20:50;;;;;;;4.47;4.07;;;;;;;19.83;71.32;100565.66;4997270;28;104215;-48
2022/06/24 09:23:17;;;;;;;4.30;3.90;;;;;;;19.83;71.27;100568.41;4996218;28;102473;-47
2022/06/24 09:25:45;;;;;;;4.20;3.90;;;;;;;19.82;71.22;100564.03;4996174;28;102064;-48
2022/06/24 09:28:19;;;;;;;3.90;3.60;;;;;;;19.83;71.29;100568.41;4996231;28;102180;-47
2022/06/24 09:30:46;;;;;;;4.43;4.07;;;;;;;19.81;71.84;100556.91;4994161;28;103885;-48
2022/06/24 09:33:20;;;;;;;4.20;3.80;;;;;;;19.81;71.41;100556.09;4995837;28;103631;-48
2022/06/24 09:35:47;;;;;;;4.25;3.95;;;;;;;19.81;71.61;100551.38;4995794;28;102233;-48
2022/06/24 09:38:14;;;;;;;4.07;3.72;;;;;;;19.83;71.10;100551.03;4995426;28;102272;-48
2022/06/24 09:40:41;;;;;;;4.55;3.63;;;;;;;19.84;71.20;100545.19;4995711;28;103918;-48
2022/06/24 09:43:09;;;;;;;3.40;3.10;;;;;;;19.84;71.41;100545.19;4995532;28;102158;-47
2022/06/24 09:45:45;;;;;;;4.07;3.78;;;;;;;19.84;71.23;100538.88;4995229;28;102572;-47
2022/06/24 09:48:12;;;;;;;4.55;4.15;;;;;;;19.87;71.37;100550.03;4995591;28;102210;-47
2022/06/24 09:50:41;;;;;;;4.32;3.92;;;;;;;19.88;71.18;100540.59;4994685;28;104122;-48
2022/06/24 09:53:08;;;;;;;4.30;3.90;;;;;;;19.87;71.36;100539.00;4994551;28;102265;-46
2022/06/24 09:55:36;;;;;;;4.50;4.20;;;;;;;19.90;71.16;100530.00;4995025;28;102158;-48
2022/06/24 09:58:04;;;;;;;4.73;4.33;;;;;;;19.91;71.34;100530.84;4995648;28;102591;-48
2022/06/24 10:00:41;;;;;;;4.13;3.80;;;;;;;19.87;71.31;100536.25;4996191;28;103933;-48
2022/06/24 10:03:11;;;;;;;4.25;3.88;;;;;;;19.86;71.32;100529.06;4995471;28;102182;-48
2022/06/24 10:05:41;;;;;;;4.10;3.80;;;;;;;19.88;70.92;100523.22;4991521;28;102556;-47
2022/06/24 10:08:12;;;;;;;3.95;3.63;;;;;;;19.87;71.25;100516.91;4996422;28;102235;-48
2022/06/24 10:10:46;;;;;;;4.53;4.13;;;;;;;19.86;71.37;100523.56;4994586;28;107999;-48
2022/06/24 10:13:24;;;;;;;4.88;3.97;;;;;;;19.86;71.41;100520.78;4993826;28;102127;-48
2022/06/24 10:15:52;;;;;;;;;;;;;;;19.85;71.61;100513.66;4995146;28;102242;-48
2022/06/24 10:18:20;;;;;;;4.60;4.22;;;;;;;19.86;71.53;100518.03;4996064;28;102161;-48
2022/06/24 10:20:50;;;;;;;4.60;4.20;;;;;;;19.85;71.90;100512.84;4994999;28;103907;-47
2022/06/24 10:23:49;;;;;;;4.10;3.80;;;;;;;19.86;71.55;100507.00;4995725;28;102192;-48
2022/06/24 10:26:17;;;;;;;4.53;4.13;;;;;;;19.86;71.73;100515.28;4985756;28;102224;-46
2022/06/24 10:29:20;;;;;;;4.72;4.32;;;;;;;19.87;71.45;100519.66;4994124;28;103651;-47
2022/06/24 10:32:06;;;;;;;4.63;4.22;;;;;;;19.88;71.31;100518.50;4990164;28;104170;-48
2022/06/24 10:34:43;;;;;;;4.53;4.13;;;;;;;19.89;71.40;100511.03;4993777;28;102516;-48
2022/06/24 10:37:27;;;;;;;4.60;4.22;;;;;;;19.89;71.33;100511.84;4987028;28;103178;-48
2022/06/24 10:39:56;;;;;;;4.97;4.47;;;;;;;19.89;71.06;100531.16;4995063;28;103388;-46
2022/06/24 10:42:24;;;;;;;4.65;4.03;;;;;;;19.90;71.04;100518.16;4993168;28;103903;-48
2022/06/24 10:44:53;;;;;;;;;;;;;;;19.87;71.52;100502.25;4992766;28;102136;-47
2022/06/24 10:47:40;;;;;;;4.70;4.30;;;;;;;19.87;71.30;100488.47;4992561;28;102185;-48
2022/06/24 10:50:15;;;;;;;4.95;4.55;;;;;;;19.87;71.80;100488.47;4993596;28;102993;-48
2022/06/24 10:53:02;;;;;;;4.82;4.50;;;;;;;19.87;71.43;100499.50;4990080;28;103503;-48
2022/06/24 10:55:40;;;;;;;4.97;4.57;;;;;;;19.91;70.97;100497.72;4994639;28;102700;-48
2022/06/24 10:58:11;;;;;;;5.15;4.65;;;;;;;19.92;71.14;100491.03;4987081;28;102295;-48
2022/06/24 11:00:51;;;;;;;4.95;4.55;;;;;;;19.91;70.93;100484.69;4996546;28;102209;-48
2022/06/24 11:03:26;;;;;;;6.10;4.82;;;;;;;19.95;70.65;100495.06;4994079;28;103822;-47
2022/06/24 11:05:52;;;;;;;5.43;4.88;;;;;;;19.96;71.01;100497.47;4992531;28;102271;-47
2022/06/24 11:08:23;;;;;;;5.30;4.90;;;;;;;19.96;71.42;100491.16;4994049;28;102992;-48
2022/06/24 11:10:52;;;;;;;5.07;4.68;;;;;;;19.96;71.34;100480.09;4993092;28;102901;-48
2022/06/24 11:13:21;;;;;;;5.32;4.70;;;;;;;19.93;71.55;100476.88;4993729;28;104043;-48
2022/06/24 11:15:50;;;;;;;5.38;4.88;;;;;;;19.98;71.10;100472.28;4995478;28;102568;-48
2022/06/24 11:18:19;;;;;;;5.45;4.90;;;;;;;19.96;71.27;100469.84;4995233;28;102289;-46
2022/06/24 11:20:48;;;;;;;5.32;4.82;;;;;;;19.96;71.43;100467.09;4996064;28;102070;-48
2022/06/24 11:23:17;;;;;;;5.28;4.88;;;;;;;19.97;71.39;100470.66;4994937;28;104034;-48
2022/06/24 11:25:47;;;;;;;5.15;4.53;;;;;;;19.97;71.34;100468.69;4993514;28;102173;-48
2022/06/24 11:28:18;;;;;;;5.75;5.20;;;;;;;19.96;71.15;100461.56;4993868;28;103247;-48